• Join FlightAware (Why Join?)
  • Login
  • US Flag 
05:39PM EST


 

Airport Tracker/Info


-or-


 

Live Flight TrackerFlight Track Log ✈ UCA4784 ✈ 29-Aug-2014 ✈ KPVD - KEWR

Flight Track Log - Related Links

Times and Time Zones

All times are in EDT time to prevent confusion due to time zone crossing. See the UCA4784 flight status page for this flight to view local times or setup timezone preferences in your user account.

Time Position Orientation Groundspeed Altitude Reporting Facility
EDT Latitude Longitude Course Direction KTS MPH feet Rate Location/Type
09:56AM 41.7431 -71.4478 265° West 172 198 1,200  Level Boston Center
09:57AM 41.7378 -71.5075 263° West 189 217 2,500 1,440 Climbing Boston Center
09:58AM 41.7325 -71.5739 264° West 182 209 3,900 1,260 Climbing Boston Center
09:58AM 41.7303 -71.6047 264° West 205 236 4,300 1,320 Climbing Boston Center
09:59AM 41.7250 -71.6550 262° West 207 238 5,300 1,380 Climbing Boston Center
10:00AM 41.7197 -71.7289 265° West 202 232 6,600 1,200 Climbing Boston Center
10:01AM 41.6765 -71.9812 265° West  Level FlightAware Approximate
10:01AM 41.7106 -71.8100 261° West 203 234 7,800  Level Boston Center
10:01AM 41.7078 -71.8389 263° West 213 245 8,000 180 Climbing Boston Center
10:02AM 41.7050 -71.8947 266° West 227 261 8,000  Level Boston Center
10:02AM 41.7019 -71.9292 263° West 258 297 8,000  Level Boston Center
10:03AM 41.6939 -71.9997 261° West 262 302 8,000  Level Boston Center
10:04AM 41.6836 -72.0853 261° West 264 304 8,000 -60 Level Boston Center
10:05AM 41.6586 -72.1800 251° West 266 306 7,900 -60 Descending Boston Center
10:06AM 41.6342 -72.2719 250° West 261 300 7,900  Level Boston Center
10:07AM 41.6100 -72.3611 250° West 264 304 7,900 -180 Level Boston Center
10:08AM 41.5869 -72.4564 252° West 264 304 7,600 -600 Descending Boston Center
10:09AM 41.5550 -72.5736 250° West 270 311 6,600 -780 Descending Boston Center
10:10AM 41.5294 -72.6708 251° West 275 316 6,000 -360 Descending Boston Center
10:11AM 41.5039 -72.7617 249° West 267 307 5,900 -60 Descending Boston Center
10:12AM 41.4789 -72.8567 251° West 258 297 5,900  Level Boston Center
10:13AM 41.4544 -72.9461 250° West 257 296 5,900  Level Boston Center
10:14AM 41.4303 -73.0356 250° West 257 296 6,000  Climbing Boston Center
10:15AM 41.4033 -73.1306 249° West 257 296 6,000  Level Boston Center
10:16AM 41.3800 -73.2194 251° West 255 293 6,000  Level Boston Center
10:17AM 41.3550 -73.3075 249° West 255 293 6,000  Level Boston Center
10:18AM 41.3297 -73.4025 251° West 255 293 6,000  Level Boston Center
10:19AM 41.3042 -73.4911 249° West 256 295 6,000  Level Boston Center
10:20AM 41.2783 -73.5875 250° West 256 295 6,000  Level Boston Center
10:21AM 41.2711 -73.6811 264° West 256 295 6,000 -180 Level Boston Center
10:22AM 41.2622 -73.7733 263° West 254 292 5,700 -540 Descending Boston Center
10:23AM 41.2528 -73.8758 263° West 257 296 5,000 -420 Descending Boston Center
10:24AM 41.2436 -73.9689 263° West 257 296 4,900  Descending Boston Center
10:25AM 41.2342 -74.0608 262° West 255 293 5,000  Climbing Boston Center
10:26AM 41.1931 -74.1450 237° Southwest 253 291 5,000  Level Boston Center
10:27AM 41.1469 -74.2144 229° Southwest 253 291 5,000  Level Boston Center
10:28AM 41.1000 -74.2833 228° Southwest 252 290 5,100  Climbing New York TRACON
10:29AM 41.0500 -74.3500 225° Southwest 256 295 5,100  Level New York TRACON
10:30AM 41.0167 -74.4167 236° Southwest 247 284 5,100  Level New York TRACON
10:31AM 41.0000 -74.5167 258° West 245 282 5,100  Level New York TRACON
10:32AM 40.9667 -74.5833 237° Southwest 255 293 5,100  Level New York TRACON
10:33AM 40.9000 -74.6167 201° Southwest 257 296 5,100  Level New York TRACON
10:34AM 40.8500 -74.5833 153° Southeast 259 298 5,100  Level New York TRACON
10:35AM 40.7833 -74.5500 159° South 268 308 5,100  Level New York TRACON
10:36AM 40.7167 -74.5833 201° Southwest 259 298 5,100  Level New York TRACON
10:37AM 40.6333 -74.5833 180° South 248 285 5,100  Level New York TRACON
10:38AM 40.5667 -74.5833 180° South 244 281 5,100  Level New York TRACON
10:39AM 40.5000 -74.5833 180° South 242 278 5,100  Level New York TRACON
10:40AM 40.4333 -74.5667 169° South 237 273 5,100  Level New York TRACON
10:41AM 40.3667 -74.5667 180° South 241 277 5,100 -360 Level New York TRACON
10:42AM 40.3500 -74.4833 105° East 233 268 4,400 -960 Descending New York TRACON
10:43AM 40.3667 -74.4167 72° East 216 249 3,200 -660 Descending New York TRACON
10:44AM 40.4167 -74.3667 37° Northeast 216 249 3,100 -60 Descending New York TRACON
10:45AM 40.4667 -74.3333 27° Northeast 218 251 3,100  Level New York TRACON
10:46AM 40.5167 -74.2833 37° Northeast 203 234 3,100 -240 Level New York TRACON
10:47AM 40.5667 -74.2500 27° Northeast 185 213 2,700 -720 Descending New York TRACON
10:48AM 40.6000 -74.2167 37° Northeast 178 205 1,700 -960 Descending New York TRACON
10:49AM 40.6500 -74.2000 14° North 150 173 800 -900 Descending New York TRACON
10:51AM 40.6833 -74.1667 90° East  Level FlightAware Approximate